Time,TemperatureF,DewpointF,PressureIn,WindDirection,WindDirectionDegrees,WindSpeedMPH,WindSpeedGustMPH,Humidity,HourlyPrecipIn,Conditions,Clouds,dailyrainin,SoftwareType,DateUTC
2013-05-23 00:07:00,64.8,64.0,29.86,ESE,120,0.0,0.0,97,0.00,,,0.00,weatherlink.com 1.10,2013-05-23 04:07:00,
2013-05-23 01:14:00,64.7,64.0,29.86,ESE,105,0.0,0.0,98,0.00,,,0.00,weatherlink.com 1.10,2013-05-23 05:14:00,
2013-05-23 01:21:00,64.7,64.0,29.86,ESE,106,0.0,0.0,98,0.00,,,0.00,weatherlink.com 1.10,2013-05-23 05:21:00,
2013-05-23 01:36:00,64.5,64.0,29.87,NW,314,0.0,0.0,98,0.00,,,0.00,weatherlink.com 1.10,2013-05-23 05:36:00,
2013-05-23 01:51:00,64.7,64.0,29.86,ESE,117,0.0,0.0,98,0.00,,,0.00,weatherlink.com 1.10,2013-05-23 05:51:00,
2013-05-23 02:06:00,64.7,64.0,29.85,ESE,117,0.0,0.0,98,0.00,,,0.00,weatherlink.com 1.10,2013-05-23 06:06:00,
2013-05-23 02:21:00,64.6,64.0,29.84,ESE,117,0.0,0.0,98,0.00,,,0.00,weatherlink.com 1.10,2013-05-23 06:21:00,
2013-05-23 02:37:00,64.7,64.0,29.84,ESE,117,0.0,0.0,98,0.00,,,0.00,weatherlink.com 1.10,2013-05-23 06:37:00,
2013-05-23 02:52:00,64.8,64.0,29.84,SE,130,0.0,0.0,98,0.00,,,0.00,weatherlink.com 1.10,2013-05-23 06:52:00,
2013-05-23 03:07:00,64.6,64.0,29.84,West,280,0.0,0.0,98,0.00,,,0.00,weatherlink.com 1.10,2013-05-23 07:07:00,
2013-05-23 03:22:00,64.7,64.0,29.84,East,97,0.0,0.0,98,0.00,,,0.00,weatherlink.com 1.10,2013-05-23 07:22:00,
2013-05-23 03:37:00,64.6,64.0,29.83,ESE,110,0.0,0.0,98,0.00,,,0.00,weatherlink.com 1.10,2013-05-23 07:37:00,
2013-05-23 03:52:00,64.5,64.0,29.84,ESE,120,0.0,0.0,98,0.00,,,0.00,weatherlink.com 1.10,2013-05-23 07:52:00,
2013-05-23 04:07:00,64.4,64.0,29.84,SE,124,0.0,0.0,98,0.00,,,0.00,weatherlink.com 1.10,2013-05-23 08:07:00,
2013-05-23 04:22:00,64.4,64.0,29.85,ESE,112,0.0,0.0,98,0.00,,,0.00,weatherlink.com 1.10,2013-05-23 08:22:00,
2013-05-23 04:37:00,64.4,64.0,29.85,ESE,111,0.0,0.0,98,0.00,,,0.00,weatherlink.com 1.10,2013-05-23 08:37:00,
2013-05-23 04:52:00,64.3,64.0,29.84,West,267,0.0,0.0,98,0.00,,,0.00,weatherlink.com 1.10,2013-05-23 08:52:00,
2013-05-23 05:07:00,64.4,64.0,29.84,WSW,258,0.0,0.0,98,0.00,,,0.00,weatherlink.com 1.10,2013-05-23 09:07:00,
2013-05-23 05:22:00,64.4,64.0,29.85,East,98,0.0,0.0,98,0.00,,,0.00,weatherlink.com 1.10,2013-05-23 09:22:00,
2013-05-23 05:37:00,64.4,64.0,29.85,SE,130,0.0,0.0,98,0.00,,,0.00,weatherlink.com 1.10,2013-05-23 09:37:00,
2013-05-23 05:52:00,64.5,64.0,29.86,ESE,111,0.0,0.0,98,0.00,,,0.00,weatherlink.com 1.10,2013-05-23 09:52:00,
2013-05-23 06:07:00,64.5,64.0,29.86,ESE,117,0.0,0.0,99,0.00,,,0.00,weatherlink.com 1.10,2013-05-23 10:07:00,
2013-05-23 06:22:00,64.5,64.0,29.86,ESE,117,0.0,0.0,99,0.00,,,0.00,weatherlink.com 1.10,2013-05-23 10:22:00,
2013-05-23 06:37:00,64.7,64.0,29.86,ESE,120,0.0,0.0,99,0.00,,,0.00,weatherlink.com 1.10,2013-05-23 10:37:00,
2013-05-23 06:52:00,64.8,65.0,29.86,ESE,121,0.0,1.0,99,0.00,,,0.00,weatherlink.com 1.10,2013-05-23 10:52:00,
2013-05-23 07:07:00,65.2,65.0,29.87,ESE,122,0.0,0.0,99,0.00,,,0.00,weatherlink.com 1.10,2013-05-23 11:07:00,
2013-05-23 07:22:00,65.3,65.0,29.87,ESE,121,0.0,0.0,99,0.00,,,0.00,weatherlink.com 1.10,2013-05-23 11:22:00,
2013-05-23 07:37:00,65.4,65.0,29.88,ESE,122,0.0,0.0,99,0.00,,,0.00,weatherlink.com 1.10,2013-05-23 11:37:00,
2013-05-23 07:52:00,65.5,65.0,29.88,ESE,121,0.0,0.0,99,0.00,,,0.00,weatherlink.com 1.10,2013-05-23 11:52:00,
2013-05-23 08:07:00,65.8,66.0,29.87,ESE,117,0.0,0.0,99,0.00,,,0.00,weatherlink.com 1.10,2013-05-23 12:07:00,
2013-05-23 08:22:00,66.1,66.0,29.87,SE,129,0.0,0.0,99,0.00,,,0.00,weatherlink.com 1.10,2013-05-23 12:22:00,
2013-05-23 08:37:00,66.5,66.0,29.87,ESE,110,0.0,0.0,99,0.00,,,0.00,weatherlink.com 1.10,2013-05-23 12:37:00,
2013-05-23 08:52:00,67.5,67.0,29.87,ESE,106,1.0,2.0,98,0.00,,,0.00,weatherlink.com 1.10,2013-05-23 12:52:00,
2013-05-23 09:07:00,68.3,68.0,29.88,West,259,0.0,3.0,97,0.00,,,0.00,weatherlink.com 1.10,2013-05-23 13:07:00,
2013-05-23 09:22:00,68.7,68.0,29.88,ESE,105,1.0,2.0,96,0.00,,,0.00,weatherlink.com 1.10,2013-05-23 13:22:00,
2013-05-23 09:37:00,68.9,68.0,29.87,ESE,108,0.0,1.0,95,0.00,,,0.00,weatherlink.com 1.10,2013-05-23 13:37:00,
2013-05-23 09:52:00,68.7,67.0,29.87,SE,132,0.0,1.0,95,0.00,,,0.00,weatherlink.com 1.10,2013-05-23 13:52:00,
2013-05-23 10:07:00,68.3,67.0,29.88,SE,134,0.0,2.0,95,0.00,,,0.00,weatherlink.com 1.10,2013-05-23 14:07:00,
2013-05-23 10:22:00,68.1,67.0,29.88,SE,138,2.0,3.0,96,0.00,,,0.00,weatherlink.com 1.10,2013-05-23 14:22:00,
2013-05-23 10:37:00,68.6,68.0,29.88,ESE,112,0.0,1.0,96,0.00,,,0.00,weatherlink.com 1.10,2013-05-23 14:37:00,
2013-05-23 10:52:00,69.6,68.0,29.87,ESE,121,1.0,3.0,94,0.00,,,0.00,weatherlink.com 1.10,2013-05-23 14:52:00,
2013-05-23 11:07:00,70.2,69.0,29.87,SE,130,1.0,3.0,94,0.00,,,0.00,weatherlink.com 1.10,2013-05-23 15:07:00,
2013-05-23 11:22:00,70.1,68.0,29.87,East,79,2.0,3.0,93,0.00,,,0.00,weatherlink.com 1.10,2013-05-23 15:22:00,
2013-05-23 11:37:00,69.3,68.0,29.88,SE,130,2.0,4.0,94,0.00,,,0.00,weatherlink.com 1.10,2013-05-23 15:37:00,
2013-05-23 11:52:00,69.4,68.0,29.87,ESE,122,2.0,4.0,94,0.00,,,0.00,weatherlink.com 1.10,2013-05-23 15:52:00,
2013-05-23 12:07:00,69.9,68.0,29.87,West,281,1.0,2.0,93,0.00,,,0.00,weatherlink.com 1.10,2013-05-23 16:07:00,
2013-05-23 12:22:00,70.1,68.0,29.86,SE,134,1.0,3.0,93,0.00,,,0.00,weatherlink.com 1.10,2013-05-23 16:22:00,
2013-05-23 12:37:00,70.6,68.0,29.85,ESE,122,0.0,4.0,92,0.00,,,0.00,weatherlink.com 1.10,2013-05-23 16:37:00,
2013-05-23 12:52:00,70.8,68.0,29.85,East,96,0.0,1.0,92,0.00,,,0.00,weatherlink.com 1.10,2013-05-23 16:52:00,
2013-05-23 13:07:00,70.6,68.0,29.84,ESE,103,0.0,2.0,92,0.00,,,0.00,weatherlink.com 1.10,2013-05-23 17:07:00,
2013-05-23 13:22:00,70.9,69.0,29.84,ESE,117,1.0,2.0,92,0.00,,,0.00,weatherlink.com 1.10,2013-05-23 17:22:00,
2013-05-23 13:37:00,70.8,68.0,29.85,ESE,121,0.0,4.0,92,0.00,,,0.00,weatherlink.com 1.10,2013-05-23 17:37:00,
2013-05-23 13:52:00,70.5,68.0,29.84,East,97,0.0,2.0,92,0.00,,,0.00,weatherlink.com 1.10,2013-05-23 17:52:00,
2013-05-23 14:07:00,70.0,68.0,29.84,ESE,117,0.0,2.0,93,0.00,,,0.00,weatherlink.com 1.10,2013-05-23 18:07:00,
2013-05-23 14:22:00,69.6,68.0,29.83,ESE,114,1.0,1.0,94,0.00,,,0.00,weatherlink.com 1.10,2013-05-23 18:22:00,
2013-05-23 14:52:00,68.0,67.0,29.84,ESE,113,0.0,3.0,97,0.34,,,0.34,weatherlink.com 1.10,2013-05-23 18:52:00,
2013-05-23 15:07:00,66.9,66.0,29.84,SE,136,1.0,4.0,97,0.86,,,0.86,weatherlink.com 1.10,2013-05-23 19:07:00,
2013-05-23 15:22:00,66.4,66.0,29.82,NW,309,0.0,1.0,98,0.89,,,0.89,weatherlink.com 1.10,2013-05-23 19:22:00,
2013-05-23 15:52:00,64.6,64.0,29.83,ESE,122,0.0,8.0,98,1.43,,,1.79,weatherlink.com 1.10,2013-05-23 19:52:00,
2013-05-23 16:08:00,64.8,65.0,29.83,SE,131,0.0,1.0,99,0.96,,,1.82,weatherlink.com 1.10,2013-05-23 20:08:00,
2013-05-23 16:23:00,65.0,65.0,29.83,SE,129,0.0,2.0,99,1.41,,,2.30,weatherlink.com 1.10,2013-05-23 20:23:00,
2013-05-23 16:38:00,65.3,65.0,29.82,SE,131,0.0,2.0,99,1.61,,,2.88,weatherlink.com 1.10,2013-05-23 20:38:00,
2013-05-23 16:53:00,65.6,65.0,29.82,SE,129,2.0,2.0,99,1.10,,,2.89,weatherlink.com 1.10,2013-05-23 20:53:00,
2013-05-23 17:08:00,65.9,66.0,29.83,SE,144,0.0,2.0,99,1.09,,,2.91,weatherlink.com 1.10,2013-05-23 21:08:00,
2013-05-23 17:23:00,65.8,66.0,29.83,ESE,116,0.0,0.0,99,0.59,,,2.95,weatherlink.com 1.10,2013-05-23 21:23:00,
2013-05-23 17:38:00,65.6,65.0,29.82,ESE,108,0.0,2.0,99,0.13,,,3.01,weatherlink.com 1.10,2013-05-23 21:38:00,
2013-05-23 17:53:00,65.4,65.0,29.81,WNW,286,0.0,2.0,99,0.17,,,3.06,weatherlink.com 1.10,2013-05-23 21:53:00,
2013-05-23 18:08:00,65.4,65.0,29.82,NW,326,0.0,1.0,99,0.15,,,3.06,weatherlink.com 1.10,2013-05-23 22:08:00,
2013-05-23 18:23:00,65.4,65.0,29.82,North,5,0.0,0.0,100,0.11,,,3.06,weatherlink.com 1.10,2013-05-23 22:23:00,
2013-05-23 18:38:00,65.4,65.0,29.82,North,5,0.0,0.0,100,0.06,,,3.07,weatherlink.com 1.10,2013-05-23 22:38:00,
2013-05-23 18:53:00,65.4,65.0,29.82,North,5,0.0,0.0,100,0.01,,,3.07,weatherlink.com 1.10,2013-05-23 22:53:00,
2013-05-23 19:08:00,65.4,65.0,29.81,North,5,0.0,0.0,100,0.01,,,3.07,weatherlink.com 1.10,2013-05-23 23:08:00,
2013-05-23 19:23:00,65.5,66.0,29.81,ENE,67,0.0,2.0,100,0.01,,,3.07,weatherlink.com 1.10,2013-05-23 23:23:00,
2013-05-23 19:38:00,65.6,66.0,29.81,SE,127,0.0,0.0,100,0.00,,,3.07,weatherlink.com 1.10,2013-05-23 23:38:00,
2013-05-23 19:53:00,65.5,66.0,29.82,SE,128,1.0,2.0,100,0.08,,,3.15,weatherlink.com 1.10,2013-05-23 23:53:00,
2013-05-23 20:08:00,65.2,65.0,29.81,ESE,117,0.0,3.0,100,0.09,,,3.16,weatherlink.com 1.10,2013-05-24 00:08:00,
2013-05-23 20:23:00,65.0,65.0,29.80,East,100,0.0,2.0,100,0.10,,,3.17,weatherlink.com 1.10,2013-05-24 00:23:00,
2013-05-23 20:38:00,64.8,65.0,29.81,South,176,1.0,3.0,100,0.11,,,3.18,weatherlink.com 1.10,2013-05-24 00:38:00,
2013-05-23 20:53:00,64.8,65.0,29.81,NE,41,1.0,4.0,100,0.04,,,3.19,weatherlink.com 1.10,2013-05-24 00:53:00,
2013-05-23 21:08:00,64.7,65.0,29.80,SE,124,1.0,4.0,100,0.05,,,3.21,weatherlink.com 1.10,2013-05-24 01:08:00,
2013-05-23 21:23:00,64.6,65.0,29.80,SE,130,0.0,4.0,100,0.05,,,3.22,weatherlink.com 1.10,2013-05-24 01:23:00,
2013-05-23 21:38:00,64.5,65.0,29.80,SE,129,2.0,3.0,100,0.07,,,3.25,weatherlink.com 1.10,2013-05-24 01:38:00,
2013-05-23 21:53:00,64.5,65.0,29.79,SE,133,1.0,5.0,100,0.07,,,3.26,weatherlink.com 1.10,2013-05-24 01:53:00,
2013-05-23 22:08:00,64.5,65.0,29.78,ESE,110,0.0,2.0,100,0.05,,,3.26,weatherlink.com 1.10,2013-05-24 02:08:00,
2013-05-23 22:23:00,64.3,64.0,29.79,East,84,1.0,6.0,100,0.03,,,3.26,weatherlink.com 1.10,2013-05-24 02:23:00,
2013-05-23 22:38:00,64.3,64.0,29.78,SW,231,0.0,4.0,100,0.01,,,3.26,weatherlink.com 1.10,2013-05-24 02:38:00,
2013-05-23 22:53:00,64.2,64.0,29.78,NE,37,0.0,2.0,100,0.00,,,3.26,weatherlink.com 1.10,2013-05-24 02:53:00,
2013-05-23 23:08:00,64.1,64.0,29.77,East,86,2.0,4.0,100,0.00,,,3.26,weatherlink.com 1.10,2013-05-24 03:08:00,
2013-05-23 23:23:00,64.0,64.0,29.76,ESE,114,1.0,3.0,100,0.00,,,3.26,weatherlink.com 1.10,2013-05-24 03:23:00,
2013-05-23 23:38:00,63.9,64.0,29.75,SSW,204,1.0,3.0,100,0.00,,,3.26,weatherlink.com 1.10,2013-05-24 03:38:00,
2013-05-23 23:53:00,63.8,64.0,29.75,SSW,212,1.0,3.0,100,0.00,,,3.26,weatherlink.com 1.10,2013-05-24 03:53:00,